createdAt,value
2019-04-07T00:01:31.836Z,19.02
2019-04-07T00:03:58.612Z,22.32
2019-04-07T00:06:25.853Z,22.00
2019-04-07T00:08:52.604Z,17.17
2019-04-07T00:11:19.591Z,20.48
2019-04-07T00:13:46.249Z,18.30
2019-04-07T00:16:13.400Z,18.62
2019-04-07T00:18:40.173Z,18.05
2019-04-07T00:21:06.744Z,19.42
2019-04-07T00:23:33.568Z,22.07
2019-04-07T00:26:00.280Z,19.85
2019-04-07T00:28:27.513Z,24.12
2019-04-07T00:30:54.237Z,21.65
2019-04-07T00:33:20.813Z,26.60
2019-04-07T00:35:47.385Z,25.23
2019-04-07T00:38:13.993Z,25.10
2019-04-07T00:40:40.577Z,21.50
2019-04-07T00:43:07.193Z,20.45
2019-04-07T00:45:33.801Z,21.42
2019-04-07T00:48:00.503Z,16.60
2019-04-07T00:50:27.118Z,18.95
2019-04-07T00:52:53.732Z,18.37
2019-04-07T00:55:20.456Z,18.70
2019-04-07T00:57:47.159Z,18.35
2019-04-07T01:00:16.481Z,17.48
2019-04-07T01:02:42.191Z,18.32
2019-04-07T01:05:08.837Z,16.93
2019-04-07T01:07:35.557Z,18.30
2019-04-07T01:10:02.213Z,18.82
2019-04-07T01:12:29.505Z,16.27
2019-04-07T01:14:56.570Z,18.45
2019-04-07T01:17:23.785Z,16.73
2019-04-07T01:19:50.891Z,17.52
2019-04-07T01:22:17.727Z,18.27
2019-04-07T01:24:44.440Z,16.07
2019-04-07T01:27:11.581Z,14.13
2019-04-07T01:29:38.770Z,17.23
2019-04-07T01:32:06.049Z,18.80
2019-04-07T01:34:32.712Z,18.15
2019-04-07T01:36:59.817Z,17.60
2019-04-07T01:39:26.457Z,17.85
2019-04-07T01:41:53.717Z,17.00
2019-04-07T01:44:20.597Z,15.50
2019-04-07T01:46:47.222Z,12.07
2019-04-07T01:49:13.799Z,12.85
2019-04-07T01:51:40.941Z,12.40
2019-04-07T01:54:07.721Z,14.23
2019-04-07T01:56:34.299Z,13.68
2019-04-07T01:59:01.520Z,11.00
2019-04-07T02:01:28.516Z,12.35
2019-04-07T02:03:55.193Z,12.47
2019-04-07T02:06:22.147Z,12.78
2019-04-07T02:08:48.794Z,12.58
2019-04-07T02:11:15.406Z,11.97
2019-04-07T02:13:42.865Z,12.10
2019-04-07T02:16:10.282Z,12.15
2019-04-07T02:18:37.725Z,12.15
2019-04-07T02:21:05.326Z,10.95
2019-04-07T02:23:32.618Z,11.38
2019-04-07T02:25:59.391Z,10.15
2019-04-07T02:28:26.415Z,10.88
2019-04-07T02:30:53.133Z,10.82
2019-04-07T02:33:19.714Z,10.25
2019-04-07T02:35:46.635Z,9.65
2019-04-07T02:38:16.090Z,10.48
2019-04-07T02:40:42.646Z,10.38
2019-04-07T02:43:10.449Z,10.32
2019-04-07T02:45:37.214Z,9.08
2019-04-07T02:48:03.809Z,10.93
2019-04-07T02:50:39.863Z,10.00
2019-04-07T02:53:07.513Z,9.40
2019-04-07T02:55:34.308Z,9.60
2019-04-07T02:58:01.514Z,8.85
2019-04-07T03:00:28.257Z,9.78
2019-04-07T03:02:55.830Z,9.33
2019-04-07T03:05:22.602Z,9.20
2019-04-07T03:07:49.217Z,9.03
2019-04-07T03:10:15.930Z,9.58
2019-04-07T03:12:43.393Z,10.30
2019-04-07T03:15:10.991Z,8.63
2019-04-07T03:17:37.792Z,9.45
2019-04-07T03:20:05.098Z,9.38
2019-04-07T03:22:32.436Z,8.28
2019-04-07T03:24:59.990Z,8.00
2019-04-07T03:27:27.137Z,8.70
2019-04-07T03:29:53.890Z,8.75
2019-04-07T03:32:23.867Z,7.72
2019-04-07T03:34:49.556Z,8.13
2019-04-07T03:37:30.984Z,7.62
2019-04-07T03:39:46.032Z,6.70
2019-04-07T03:42:12.700Z,6.67
2019-04-07T03:44:39.265Z,7.33
2019-04-07T03:47:07.012Z,7.35
2019-04-07T03:49:35.007Z,7.90
2019-04-07T03:52:02.014Z,6.42
2019-04-07T03:54:29.109Z,7.62
2019-04-07T03:56:56.545Z,7.00
2019-04-07T03:59:23.370Z,8.35
2019-04-07T04:01:49.962Z,5.85
2019-04-07T04:04:16.628Z,7.78
2019-04-07T04:06:43.330Z,6.30
2019-04-07T04:09:09.980Z,7.47
2019-04-07T04:11:36.657Z,7.90
2019-04-07T04:14:03.233Z,7.45
2019-04-07T04:16:29.812Z,7.42
2019-04-07T04:18:56.856Z,7.22
2019-04-07T04:21:24.262Z,7.62
2019-04-07T04:23:51.655Z,8.60
2019-04-07T04:26:18.385Z,7.28
2019-04-07T04:28:45.002Z,7.90
2019-04-07T04:31:11.580Z,8.68
2019-04-07T04:33:38.148Z,7.55
2019-04-07T04:36:05.621Z,8.08
2019-04-07T04:38:32.280Z,7.47
2019-04-07T04:40:58.888Z,6.83
2019-04-07T04:43:25.563Z,6.97
2019-04-07T04:45:53.250Z,8.45
2019-04-07T04:48:20.073Z,8.95
2019-04-07T04:50:47.175Z,9.90
2019-04-07T04:53:14.902Z,8.48
2019-04-07T04:55:41.717Z,8.53
2019-04-07T04:58:08.786Z,7.45
2019-04-07T05:00:36.397Z,6.75
2019-04-07T05:03:03.149Z,7.58
2019-04-07T05:05:30.373Z,8.50
2019-04-07T05:08:02.706Z,7.00
2019-04-07T05:10:25.469Z,7.05
2019-04-07T05:12:53.675Z,7.62
2019-04-07T05:15:21.000Z,7.10
2019-04-07T05:17:47.731Z,7.20
2019-04-07T05:20:14.304Z,7.05
2019-04-07T05:22:41.232Z,5.55
2019-04-07T05:25:08.556Z,5.85
2019-04-07T05:27:35.393Z,5.45
2019-04-07T05:30:02.469Z,5.97
2019-04-07T05:32:29.231Z,5.17
2019-04-07T05:34:55.810Z,6.47
2019-04-07T05:37:22.987Z,5.15
2019-04-07T05:39:49.921Z,5.72
2019-04-07T05:42:16.664Z,6.00
2019-04-07T05:44:44.385Z,6.25
2019-04-07T05:47:13.717Z,5.50
2019-04-07T05:49:39.408Z,5.42
2019-04-07T05:52:06.718Z,5.85
2019-04-07T05:54:34.048Z,5.65
2019-04-07T05:57:01.603Z,5.78
2019-04-07T05:59:29.596Z,5.55
2019-04-07T06:02:00.744Z,5.35
2019-04-07T06:04:26.031Z,4.87
2019-04-07T06:06:55.345Z,5.70
2019-04-07T06:09:21.108Z,4.62
2019-04-07T06:11:48.820Z,4.45
2019-04-07T06:14:16.728Z,5.05
2019-04-07T06:16:43.788Z,5.55
2019-04-07T06:19:10.644Z,5.03
2019-04-07T06:21:37.810Z,5.20
2019-04-07T06:24:04.766Z,4.47
2019-04-07T06:26:31.394Z,5.85
2019-04-07T06:28:58.868Z,4.87
2019-04-07T06:31:26.892Z,6.47
2019-04-07T06:33:55.090Z,4.83
2019-04-07T06:36:22.216Z,5.75
2019-04-07T06:38:51.849Z,5.17
2019-04-07T06:41:17.411Z,6.05
2019-04-07T06:43:44.154Z,6.28
2019-04-07T06:46:10.784Z,5.17
2019-04-07T06:48:39.034Z,5.20
2019-04-07T06:51:06.038Z,5.37
2019-04-07T06:53:32.813Z,5.00
2019-04-07T06:56:02.111Z,5.25
2019-04-07T06:58:27.683Z,5.83
2019-04-07T07:00:55.957Z,5.47
2019-04-07T07:03:22.669Z,5.55
2019-04-07T07:05:49.520Z,5.30
2019-04-07T07:08:19.352Z,5.90
2019-04-07T07:10:44.493Z,5.12
2019-04-07T07:13:20.189Z,5.70
2019-04-07T07:15:39.683Z,4.87
2019-04-07T07:18:06.387Z,4.55
2019-04-07T07:20:32.997Z,5.75
2019-04-07T07:23:00.699Z,5.08
2019-04-07T07:25:29.702Z,4.92
2019-04-07T07:27:55.662Z,4.55
2019-04-07T07:30:22.236Z,4.33
2019-04-07T07:32:49.685Z,4.00
2019-04-07T07:35:16.546Z,4.42
2019-04-07T07:37:43.445Z,4.70
2019-04-07T07:40:10.116Z,4.10
2019-04-07T07:42:36.739Z,5.22
2019-04-07T07:45:03.693Z,5.50
2019-04-07T07:47:31.216Z,4.72
2019-04-07T07:49:58.446Z,4.55
2019-04-07T07:52:25.536Z,6.47
2019-04-07T07:54:52.989Z,5.58
2019-04-07T07:57:23.485Z,5.75
2019-04-07T07:59:48.654Z,6.00
2019-04-07T08:02:19.458Z,6.53
2019-04-07T08:04:43.603Z,5.15
2019-04-07T08:07:13.444Z,5.87
2019-04-07T08:09:39.250Z,7.20
2019-04-07T08:12:06.301Z,5.70
2019-04-07T08:14:32.940Z,5.65
2019-04-07T08:17:01.619Z,4.75
2019-04-07T08:19:29.662Z,4.80
2019-04-07T08:21:56.111Z,4.92
2019-04-07T08:24:22.920Z,4.85
2019-04-07T08:26:50.311Z,5.00
2019-04-07T08:29:17.018Z,4.35
2019-04-07T08:31:43.806Z,4.67
2019-04-07T08:34:10.966Z,4.75
2019-04-07T08:36:38.075Z,4.30
2019-04-07T08:39:05.016Z,4.55
2019-04-07T08:41:32.539Z,4.50
2019-04-07T08:43:59.852Z,4.17
2019-04-07T08:46:26.552Z,4.35
2019-04-07T08:48:54.289Z,4.10
2019-04-07T08:51:21.351Z,4.90
2019-04-07T08:53:48.422Z,4.55
2019-04-07T08:56:15.482Z,5.30
2019-04-07T08:58:42.565Z,5.22
2019-04-07T09:01:09.724Z,4.22
2019-04-07T09:03:36.465Z,4.58
2019-04-07T09:06:03.074Z,4.55
2019-04-07T09:08:29.726Z,5.65
2019-04-07T09:10:56.690Z,5.45
2019-04-07T09:13:24.032Z,5.10
2019-04-07T09:15:50.635Z,5.72
2019-04-07T09:18:18.090Z,5.00
2019-04-07T09:20:48.485Z,5.40
2019-04-07T09:23:14.683Z,5.28
2019-04-07T09:25:42.777Z,5.97
2019-04-07T09:28:10.082Z,5.08
2019-04-07T09:30:36.852Z,4.55
2019-04-07T09:33:03.561Z,4.62
2019-04-07T09:35:30.929Z,4.12
2019-04-07T09:37:57.701Z,4.28
2019-04-07T09:40:24.450Z,4.15
2019-04-07T09:42:51.934Z,4.72
2019-04-07T09:45:18.627Z,5.05
2019-04-07T09:47:47.156Z,4.62
2019-04-07T09:50:13.583Z,3.83
2019-04-07T09:52:43.575Z,4.20
2019-04-07T09:55:09.496Z,3.60
2019-04-07T09:57:38.736Z,4.60
2019-04-07T10:00:07.286Z,4.28
2019-04-07T10:02:35.437Z,4.28
2019-04-07T10:05:01.857Z,5.22
2019-04-07T10:07:28.474Z,5.10
2019-04-07T10:10:07.411Z,4.97
2019-04-07T10:12:24.797Z,5.67
2019-04-07T10:14:51.592Z,5.30
2019-04-07T10:17:18.189Z,5.12
2019-04-07T10:19:44.746Z,4.60
2019-04-07T10:22:12.312Z,5.40
2019-04-07T10:24:39.407Z,5.95
2019-04-07T10:27:06.932Z,5.28
2019-04-07T10:29:34.092Z,5.20
2019-04-07T10:32:01.256Z,5.10
2019-04-07T10:34:28.426Z,5.85
2019-04-07T10:36:55.720Z,5.97
2019-04-07T10:39:22.989Z,4.53
2019-04-07T10:41:50.667Z,6.03
2019-04-07T10:44:17.945Z,5.78
2019-04-07T10:46:44.963Z,5.83
2019-04-07T10:49:11.827Z,5.75
2019-04-07T10:51:38.415Z,5.55
2019-04-07T10:54:04.989Z,5.53
2019-04-07T10:56:31.972Z,5.58
2019-04-07T10:58:59.349Z,6.60
2019-04-07T11:01:26.696Z,6.15
2019-04-07T11:03:54.752Z,6.62
2019-04-07T11:06:22.692Z,7.47
2019-04-07T11:08:49.464Z,7.72
2019-04-07T11:11:16.186Z,7.47
2019-04-07T11:13:42.957Z,7.62
2019-04-07T11:16:10.814Z,6.30
2019-04-07T11:18:38.240Z,9.05
2019-04-07T11:21:04.833Z,10.30
2019-04-07T11:23:31.981Z,8.30
2019-04-07T11:25:59.363Z,10.13
2019-04-07T11:28:28.699Z,10.25
2019-04-07T11:30:54.368Z,9.70
2019-04-07T11:33:20.990Z,10.20
2019-04-07T11:35:47.637Z,11.40
2019-04-07T11:38:14.893Z,11.05
2019-04-07T11:40:47.595Z,10.72
2019-04-07T11:43:10.704Z,12.18
2019-04-07T11:45:37.787Z,12.20
2019-04-07T11:48:04.465Z,13.88
2019-04-07T11:50:31.042Z,11.85
2019-04-07T11:52:57.635Z,12.70
2019-04-07T11:55:26.211Z,11.70
2019-04-07T11:58:06.598Z,12.85
2019-04-07T12:00:20.925Z,11.78
2019-04-07T12:02:49.293Z,9.93
2019-04-07T12:05:15.947Z,9.90
2019-04-07T12:07:42.509Z,10.58
2019-04-07T12:10:09.575Z,10.95
2019-04-07T12:12:36.274Z,12.90
2019-04-07T12:15:02.888Z,12.50
2019-04-07T12:17:30.052Z,9.10
2019-04-07T12:19:57.831Z,9.88
2019-04-07T12:22:24.991Z,9.63
2019-04-07T12:24:51.671Z,8.28
2019-04-07T12:27:21.153Z,9.00
2019-04-07T12:29:47.170Z,10.63
2019-04-07T12:32:13.826Z,11.12
2019-04-07T12:34:43.900Z,14.65
2019-04-07T12:37:10.312Z,11.45
2019-04-07T12:39:37.013Z,13.58
2019-04-07T12:42:04.425Z,10.03
2019-04-07T12:44:31.942Z,11.48
2019-04-07T12:46:58.570Z,11.45
2019-04-07T12:49:25.371Z,12.10
2019-04-07T12:51:55.688Z,11.43
2019-04-07T12:54:20.721Z,13.05
2019-04-07T12:56:47.801Z,12.13
2019-04-07T12:59:16.531Z,12.93
2019-04-07T13:01:47.077Z,11.48
2019-04-07T13:04:11.197Z,12.93
2019-04-07T13:06:42.321Z,13.03
2019-04-07T13:09:06.081Z,12.10
2019-04-07T13:11:37.288Z,14.03
2019-04-07T13:14:05.010Z,13.70
2019-04-07T13:16:29.524Z,14.30
2019-04-07T13:18:56.653Z,16.95
2019-04-07T13:21:24.996Z,16.90
2019-04-07T13:23:51.815Z,15.00
2019-04-07T13:26:18.702Z,15.43
2019-04-07T13:28:45.361Z,16.15
2019-04-07T13:31:12.414Z,17.12
2019-04-07T13:33:39.455Z,15.32
2019-04-07T13:36:06.175Z,15.28
2019-04-07T13:38:32.885Z,16.10
2019-04-07T13:40:59.596Z,14.43
2019-04-07T13:43:26.525Z,17.42
2019-04-07T13:45:53.924Z,16.35
2019-04-07T13:48:21.423Z,15.08
2019-04-07T13:50:48.023Z,14.45
2019-04-07T13:53:14.642Z,15.58
2019-04-07T13:55:43.822Z,15.05
2019-04-07T13:58:09.736Z,15.20
2019-04-07T14:00:37.016Z,14.85
2019-04-07T14:03:03.672Z,15.38
2019-04-07T14:05:30.243Z,15.48
2019-04-07T14:07:57.152Z,15.93
2019-04-07T14:10:24.413Z,13.78
2019-04-07T14:12:51.080Z,16.65
2019-04-07T14:15:17.650Z,17.30
2019-04-07T14:17:44.972Z,15.68
2019-04-07T14:20:11.693Z,16.12
2019-04-07T14:22:38.320Z,15.43
2019-04-07T14:25:04.887Z,16.95
2019-04-07T14:27:31.458Z,16.77
2019-04-07T14:29:58.036Z,16.80
2019-04-07T14:32:24.610Z,17.65
2019-04-07T14:34:51.190Z,19.12
2019-04-07T14:37:18.598Z,20.15
2019-04-07T14:39:45.577Z,21.00
2019-04-07T14:42:13.098Z,21.87
2019-04-07T14:44:40.173Z,19.95
2019-04-07T14:47:07.614Z,19.00
2019-04-07T14:49:34.345Z,22.75
2019-04-07T14:52:01.419Z,20.27
2019-04-07T14:54:28.232Z,20.27
2019-04-07T14:56:55.362Z,20.05
2019-04-07T14:59:24.653Z,21.90
2019-04-07T15:01:51.247Z,20.92
2019-04-07T15:04:18.181Z,21.10
2019-04-07T15:06:44.942Z,21.82
2019-04-07T15:09:12.200Z,20.60
2019-04-07T15:11:38.829Z,20.15
2019-04-07T15:14:06.162Z,20.80
2019-04-07T15:16:32.914Z,21.12
2019-04-07T15:18:59.587Z,19.75
2019-04-07T15:21:26.159Z,20.02
2019-04-07T15:23:52.989Z,22.13
2019-04-07T15:26:20.366Z,20.02
2019-04-07T15:28:46.940Z,23.15
2019-04-07T15:31:17.240Z,23.38
2019-04-07T15:33:42.346Z,22.93
2019-04-07T15:36:09.356Z,21.55
2019-04-07T15:38:37.411Z,22.95
2019-04-07T15:41:07.792Z,23.22
2019-04-07T15:43:34.859Z,21.80
2019-04-07T15:46:01.272Z,20.23
2019-04-07T15:48:28.557Z,21.07
2019-04-07T15:50:56.142Z,23.55
2019-04-07T15:53:22.890Z,20.37
2019-04-07T15:55:58.480Z,21.82
2019-04-07T15:58:17.796Z,20.50
2019-04-07T16:00:45.130Z,19.45
2019-04-07T16:03:15.091Z,20.97
2019-04-07T16:05:43.819Z,20.27
2019-04-07T16:08:11.246Z,20.68
2019-04-07T16:10:37.568Z,18.60
2019-04-07T16:13:04.676Z,19.00
2019-04-07T16:15:33.249Z,19.17
2019-04-07T16:18:03.415Z,19.37
2019-04-07T16:20:32.338Z,19.12
2019-04-07T16:22:57.460Z,20.75
2019-04-07T16:25:27.602Z,20.72
2019-04-07T16:27:52.510Z,19.57
2019-04-07T16:30:20.290Z,22.80
2019-04-07T16:32:48.020Z,21.35
2019-04-07T16:35:16.367Z,20.57
2019-04-07T16:37:43.741Z,22.80
2019-04-07T16:40:11.663Z,20.95
2019-04-07T16:42:39.234Z,27.52
2019-04-07T16:45:06.081Z,22.42
2019-04-07T16:47:35.620Z,23.85
2019-04-07T16:50:01.113Z,23.05
2019-04-07T16:52:31.807Z,37.90
2019-04-07T16:54:56.084Z,30.85
2019-04-07T16:57:26.971Z,32.38
2019-04-07T16:59:50.980Z,27.55
2019-04-07T17:02:19.247Z,28.57
2019-04-07T17:04:48.392Z,26.42
2019-04-07T17:07:16.761Z,74.05
2019-04-07T17:09:43.293Z,45.45
2019-04-07T17:12:11.582Z,34.38
2019-04-07T17:14:38.201Z,29.95
2019-04-07T17:17:05.031Z,29.70
2019-04-07T17:19:32.467Z,29.37
2019-04-07T17:22:00.352Z,33.40
2019-04-07T17:24:30.311Z,32.88
2019-04-07T17:26:56.235Z,35.65
2019-04-07T17:29:23.531Z,46.45
2019-04-07T17:31:50.849Z,38.55
2019-04-07T17:34:18.429Z,34.10
2019-04-07T17:36:48.487Z,31.15
2019-04-07T17:39:14.345Z,28.38
2019-04-07T17:41:41.660Z,29.50
2019-04-07T17:44:08.362Z,28.23
2019-04-07T17:46:34.927Z,30.37
2019-04-07T17:49:01.497Z,31.05
2019-04-07T17:51:28.698Z,34.78
2019-04-07T17:53:55.333Z,33.30
2019-04-07T17:56:22.219Z,34.63
2019-04-07T17:58:48.910Z,32.20
2019-04-07T18:01:15.873Z,32.20
2019-04-07T18:03:44.212Z,30.30
2019-04-07T18:06:11.221Z,31.02
2019-04-07T18:08:41.789Z,30.50
2019-04-07T18:11:06.416Z,30.72
2019-04-07T18:13:41.984Z,30.37
2019-04-07T18:16:01.298Z,40.58
2019-04-07T18:18:28.261Z,44.80
2019-04-07T18:20:55.011Z,38.28
2019-04-07T18:23:24.053Z,47.05
2019-04-07T18:25:51.838Z,38.28
2019-04-07T18:28:21.541Z,34.50
2019-04-07T18:30:47.226Z,34.85
2019-04-07T18:33:18.238Z,36.65
2019-04-07T18:35:42.984Z,37.03
2019-04-07T18:38:11.431Z,37.20
2019-04-07T18:40:39.336Z,35.88
2019-04-07T18:43:06.328Z,37.78
2019-04-07T18:45:33.100Z,37.20
2019-04-07T18:47:59.982Z,36.15
2019-04-07T18:50:26.562Z,46.33
2019-04-07T18:52:55.540Z,40.08
2019-04-07T18:55:22.408Z,42.35
2019-04-07T18:57:49.166Z,45.75
2019-04-07T19:00:17.010Z,40.45
2019-04-07T19:02:45.971Z,48.38
2019-04-07T19:05:14.033Z,44.50
2019-04-07T19:07:41.654Z,49.08
2019-04-07T19:10:15.499Z,42.73
2019-04-07T19:12:36.780Z,37.85
2019-04-07T19:15:08.050Z,38.58
2019-04-07T19:17:32.660Z,44.20
2019-04-07T19:20:00.682Z,49.27
2019-04-07T19:22:27.376Z,53.30
2019-04-07T19:24:55.816Z,54.73
2019-04-07T19:27:25.381Z,57.27
2019-04-07T19:29:50.820Z,64.87
2019-04-07T19:32:17.964Z,63.92
2019-04-07T19:34:45.806Z,60.80
2019-04-07T19:37:15.553Z,59.03
2019-04-07T19:39:40.675Z,54.67
2019-04-07T19:42:08.801Z,55.65
2019-04-07T19:44:40.015Z,55.45
2019-04-07T19:47:04.441Z,54.95
2019-04-07T19:49:31.118Z,56.40
2019-04-07T19:52:02.353Z,54.00
2019-04-07T19:54:27.207Z,54.53
2019-04-07T19:56:54.699Z,55.25
2019-04-07T19:59:21.703Z,51.05
2019-04-07T20:01:49.108Z,57.30
2019-04-07T20:04:16.314Z,60.30
2019-04-07T20:06:44.016Z,59.60
2019-04-07T20:09:12.255Z,57.83
2019-04-07T20:11:39.923Z,61.58
2019-04-07T20:14:10.471Z,58.85
2019-04-07T20:16:34.880Z,62.30
2019-04-07T20:19:02.345Z,63.90
2019-04-07T20:21:37.471Z,65.37
2019-04-07T20:24:02.292Z,69.07
2019-04-07T20:26:26.207Z,68.65
2019-04-07T20:28:53.002Z,66.97
2019-04-07T20:31:22.461Z,79.72
2019-04-07T20:33:47.856Z,80.35
2019-04-07T20:36:20.249Z,88.60
2019-04-07T20:38:42.841Z,79.67
2019-04-07T20:41:12.033Z,85.62
2019-04-07T20:43:38.389Z,76.77
2019-04-07T20:46:05.085Z,78.12
2019-04-07T20:48:33.376Z,76.87
2019-04-07T20:51:00.473Z,73.70
2019-04-07T20:53:29.857Z,72.55
2019-04-07T20:55:56.077Z,73.92
2019-04-07T20:58:25.088Z,63.25
2019-04-07T21:00:58.352Z,61.37
2019-04-07T21:03:22.648Z,52.53
2019-04-07T21:05:48.272Z,49.75
2019-04-07T21:08:15.024Z,50.10
2019-04-07T21:10:41.621Z,53.35
2019-04-07T21:13:08.761Z,56.00
2019-04-07T21:15:35.765Z,54.98
2019-04-07T21:18:02.503Z,51.68
2019-04-07T21:20:29.810Z,51.80
2019-04-07T21:22:56.680Z,55.67
2019-04-07T21:25:25.146Z,57.93
2019-04-07T21:27:52.664Z,51.60
2019-04-07T21:30:19.403Z,55.90
2019-04-07T21:32:48.512Z,53.52
2019-04-07T21:35:14.999Z,55.63
2019-04-07T21:37:45.054Z,54.88
2019-04-07T21:40:10.050Z,56.55
2019-04-07T21:42:36.916Z,56.50
2019-04-07T21:45:05.787Z,62.78
2019-04-07T21:47:31.922Z,63.78
2019-04-07T21:49:58.561Z,58.25
2019-04-07T21:52:25.993Z,62.38
2019-04-07T21:54:53.319Z,62.35
2019-04-07T21:57:20.266Z,60.98
2019-04-07T21:59:47.864Z,58.80
2019-04-07T22:02:15.343Z,59.98
2019-04-07T22:04:42.083Z,57.10
2019-04-07T22:07:09.086Z,62.95
2019-04-07T22:09:35.829Z,58.35
2019-04-07T22:12:02.434Z,63.13
2019-04-07T22:14:29.009Z,62.17
2019-04-07T22:16:55.615Z,60.98
2019-04-07T22:19:22.325Z,63.70
2019-04-07T22:21:53.248Z,63.00
2019-04-07T22:24:17.283Z,63.55
2019-04-07T22:26:49.202Z,59.18
2019-04-07T22:29:12.212Z,58.78
2019-04-07T22:31:38.825Z,61.80
2019-04-07T22:34:05.400Z,60.98
2019-04-07T22:36:32.020Z,58.23
2019-04-07T22:39:00.959Z,61.20
2019-04-07T22:41:27.062Z,55.78
2019-04-07T22:43:53.668Z,57.62
2019-04-07T22:46:24.592Z,59.85
2019-04-07T22:48:48.573Z,53.58
2019-04-07T22:51:15.178Z,52.40
2019-04-07T22:53:41.750Z,54.58
2019-04-07T22:56:09.133Z,59.42
2019-04-07T22:58:36.129Z,58.38
2019-04-07T23:01:02.872Z,55.55
2019-04-07T23:03:29.457Z,56.85
2019-04-07T23:05:56.062Z,55.55
2019-04-07T23:08:22.646Z,59.08
2019-04-07T23:10:49.741Z,48.38
2019-04-07T23:13:16.624Z,55.20
2019-04-07T23:15:45.856Z,56.48
2019-04-07T23:18:11.662Z,50.60
2019-04-07T23:20:38.336Z,48.00
2019-04-07T23:23:04.960Z,50.92
2019-04-07T23:25:32.252Z,50.12
2019-04-07T23:27:58.905Z,45.55
2019-04-07T23:30:25.705Z,46.37
2019-04-07T23:32:52.336Z,52.80
2019-04-07T23:35:18.933Z,48.52
2019-04-07T23:37:45.514Z,47.58
2019-04-07T23:40:12.092Z,45.90
2019-04-07T23:42:38.667Z,43.02
2019-04-07T23:45:05.248Z,44.77
2019-04-07T23:47:31.837Z,41.20
2019-04-07T23:49:58.677Z,40.83
2019-04-07T23:52:25.260Z,42.48
2019-04-07T23:54:52.457Z,40.48
2019-04-07T23:57:19.786Z,40.95
2019-04-07T23:59:47.202Z,40.63
